createdAt,value
2019-04-14T00:01:47.481Z,5.60
2019-04-14T00:04:18.216Z,5.50
2019-04-14T00:06:46.761Z,5.50
2019-04-14T00:09:16.328Z,5.50
2019-04-14T00:11:45.931Z,5.40
2019-04-14T00:14:16.335Z,5.40
2019-04-14T00:16:44.980Z,5.40
2019-04-14T00:19:13.396Z,5.30
2019-04-14T00:21:41.815Z,5.30
2019-04-14T00:24:10.268Z,5.50
2019-04-14T00:26:38.788Z,5.50
2019-04-14T00:29:07.289Z,5.60
2019-04-14T00:31:37.019Z,5.50
2019-04-14T00:34:07.475Z,5.40
2019-04-14T00:36:50.214Z,5.40
2019-04-14T00:39:27.288Z,5.30
2019-04-14T00:42:05.372Z,5.30
2019-04-14T00:44:41.100Z,5.30
2019-04-14T00:47:24.544Z,5.20
2019-04-14T00:49:53.103Z,5.30
2019-04-14T00:52:22.977Z,5.20
2019-04-14T00:54:52.178Z,5.30
2019-04-14T00:57:20.717Z,5.20
2019-04-14T00:59:49.122Z,5.10
2019-04-14T01:02:18.825Z,5.10
2019-04-14T01:04:47.388Z,5.00
2019-04-14T01:07:15.833Z,4.90
2019-04-14T01:09:44.300Z,4.90
2019-04-14T01:12:13.167Z,4.80
2019-04-14T01:14:41.587Z,4.80
2019-04-14T01:17:11.181Z,4.70
2019-04-14T01:19:39.704Z,4.70
2019-04-14T01:22:08.114Z,4.70
2019-04-14T01:24:36.541Z,4.60
2019-04-14T01:27:06.058Z,4.70
2019-04-14T01:29:34.548Z,4.70
2019-04-14T01:32:03.002Z,4.70
2019-04-14T01:34:32.423Z,4.70
2019-04-14T01:37:00.941Z,4.70
2019-04-14T01:39:30.679Z,4.70
2019-04-14T01:42:00.713Z,4.50
2019-04-14T01:44:29.251Z,4.50
2019-04-14T01:46:58.724Z,4.50
2019-04-14T01:49:27.354Z,4.60
2019-04-14T01:52:00.084Z,4.60
2019-04-14T01:54:33.032Z,4.50
2019-04-14T01:57:15.412Z,4.40
2019-04-14T01:59:43.882Z,4.40
2019-04-14T02:02:14.129Z,4.30
2019-04-14T02:04:44.324Z,4.20
2019-04-14T02:07:12.954Z,4.30
2019-04-14T02:09:42.509Z,4.40
2019-04-14T02:12:11.167Z,4.30
2019-04-14T02:14:40.782Z,4.30
2019-04-14T02:17:09.520Z,4.30
2019-04-14T02:19:39.272Z,4.40
2019-04-14T02:22:07.814Z,4.30
2019-04-14T02:24:37.380Z,4.20
2019-04-14T02:27:05.908Z,4.20
2019-04-14T02:29:34.626Z,4.10
2019-04-14T02:34:57.512Z,4.10
2019-04-14T02:37:26.053Z,4.00
2019-04-14T02:40:01.357Z,4.00
2019-04-14T02:45:02.451Z,3.90
2019-04-14T02:50:02.597Z,3.90
2019-04-14T02:52:34.930Z,3.80
2019-04-14T02:54:59.909Z,3.80
2019-04-14T02:57:30.512Z,3.80
2019-04-14T03:00:09.058Z,3.80
2019-04-14T03:02:38.931Z,3.90
2019-04-14T03:05:04.124Z,3.80
2019-04-14T03:07:37.857Z,3.80
2019-04-14T03:09:52.412Z,3.70
2019-04-14T03:12:35.579Z,3.70
2019-04-14T03:15:01.467Z,3.60
2019-04-14T03:17:39.183Z,3.60
2019-04-14T03:20:27.980Z,3.60
2019-04-14T03:25:37.575Z,3.50
2019-04-14T03:28:26.307Z,3.50
2019-04-14T03:38:36.470Z,3.40
2019-04-14T03:43:30.337Z,3.50
2019-04-14T03:51:06.500Z,3.30
2019-04-14T03:53:44.054Z,3.30
2019-04-14T03:55:58.383Z,3.30
2019-04-14T03:58:22.665Z,3.40
2019-04-14T04:00:51.560Z,3.40
2019-04-14T04:03:21.676Z,3.40
2019-04-14T04:05:50.352Z,3.40
2019-04-14T04:08:20.029Z,3.40
2019-04-14T04:10:56.011Z,3.40
2019-04-14T04:13:24.417Z,3.40
2019-04-14T04:15:54.470Z,3.40
2019-04-14T04:18:27.284Z,3.40
2019-04-14T04:21:00.920Z,3.20
2019-04-14T04:23:38.166Z,3.30
2019-04-14T04:26:12.563Z,3.30
2019-04-14T04:28:49.660Z,3.30
2019-04-14T04:31:38.232Z,3.30
2019-04-14T04:34:11.934Z,3.40
2019-04-14T04:36:48.752Z,3.40
2019-04-14T04:39:25.772Z,3.40
2019-04-14T04:41:54.360Z,3.40
2019-04-14T04:44:22.765Z,3.40
2019-04-14T04:46:51.172Z,3.40
2019-04-14T04:49:24.079Z,3.50
2019-04-14T04:51:50.779Z,3.50
2019-04-14T04:54:19.456Z,3.50
2019-04-14T04:56:47.868Z,3.50
2019-04-14T04:59:17.070Z,3.30
2019-04-14T05:01:45.593Z,3.30
2019-04-14T05:04:14.000Z,3.40
2019-04-14T05:07:01.252Z,3.30
2019-04-14T05:09:38.738Z,3.30
2019-04-14T05:12:24.656Z,3.40
2019-04-14T05:15:01.013Z,3.40
2019-04-14T05:17:38.806Z,3.40
2019-04-14T05:20:07.527Z,3.40
2019-04-14T05:22:35.942Z,3.50
2019-04-14T05:25:05.749Z,3.50
2019-04-14T05:27:34.217Z,3.60
2019-04-14T05:30:02.735Z,3.70
2019-04-14T05:32:32.554Z,3.70
2019-04-14T05:35:01.215Z,3.70
2019-04-14T05:37:29.637Z,3.60
2019-04-14T05:39:59.285Z,3.80
2019-04-14T05:42:28.671Z,3.70
2019-04-14T05:44:58.448Z,3.70
2019-04-14T05:47:26.862Z,3.90
2019-04-14T05:49:57.509Z,3.90
2019-04-14T05:52:25.381Z,4.00
2019-04-14T05:54:53.849Z,4.00
2019-04-14T05:57:22.263Z,3.90
2019-04-14T05:59:50.824Z,4.00
2019-04-14T06:02:20.216Z,4.10
2019-04-14T06:04:48.735Z,4.20
2019-04-14T06:07:17.940Z,4.00
2019-04-14T06:09:46.351Z,4.10
2019-04-14T06:12:14.841Z,4.20
2019-04-14T06:14:43.252Z,4.30
2019-04-14T06:17:11.695Z,4.10
2019-04-14T06:19:40.745Z,4.20
2019-04-14T06:22:09.369Z,4.20
2019-04-14T06:24:37.789Z,4.20
2019-04-14T06:27:06.222Z,4.30
2019-04-14T06:29:34.624Z,4.30
2019-04-14T06:32:13.856Z,4.30
2019-04-14T06:34:52.848Z,4.40
2019-04-14T06:37:28.737Z,4.40
2019-04-14T06:40:04.825Z,4.60
2019-04-14T06:42:33.256Z,4.60
2019-04-14T06:45:01.779Z,4.60
2019-04-14T06:47:30.357Z,5.00
2019-04-14T06:49:58.962Z,4.90
2019-04-14T06:52:27.443Z,4.50
2019-04-14T06:54:55.871Z,4.40
2019-04-14T06:57:24.363Z,4.50
2019-04-14T06:59:53.170Z,4.70
2019-04-14T07:02:21.689Z,5.00
2019-04-14T07:04:50.236Z,5.00
2019-04-14T07:07:18.729Z,5.10
2019-04-14T07:09:47.269Z,5.00
2019-04-14T07:12:15.795Z,5.00
2019-04-14T07:14:44.260Z,5.10
2019-04-14T07:17:12.765Z,5.30
2019-04-14T07:19:41.241Z,5.70
2019-04-14T07:22:09.658Z,5.80
2019-04-14T07:24:38.125Z,6.00
2019-04-14T07:27:06.545Z,5.90
2019-04-14T07:29:36.601Z,5.90
2019-04-14T07:32:09.479Z,6.10
2019-04-14T07:34:51.778Z,6.40
2019-04-14T07:37:24.542Z,6.70
2019-04-14T07:40:11.022Z,6.80
2019-04-14T07:42:43.697Z,7.20
2019-04-14T07:45:31.845Z,7.20
2019-04-14T07:48:04.515Z,7.10
2019-04-14T07:50:37.353Z,7.00
2019-04-14T07:53:07.473Z,7.10
2019-04-14T07:55:43.456Z,7.40
2019-04-14T07:58:13.511Z,7.50
2019-04-14T08:00:43.567Z,8.00
2019-04-14T08:03:23.773Z,8.00
2019-04-14T08:05:52.189Z,8.00
2019-04-14T08:08:20.700Z,8.00
2019-04-14T08:10:49.126Z,7.90
2019-04-14T08:13:17.536Z,7.80
2019-04-14T08:15:45.969Z,7.80
2019-04-14T08:18:14.403Z,7.90
2019-04-14T08:20:42.822Z,8.00
2019-04-14T08:23:11.232Z,8.10
2019-04-14T08:25:39.655Z,8.20
2019-04-14T08:28:08.061Z,8.30
2019-04-14T08:30:36.477Z,8.60
2019-04-14T08:33:05.161Z,8.90
2019-04-14T08:35:33.629Z,8.90
2019-04-14T08:38:02.110Z,9.00
2019-04-14T08:40:30.797Z,9.10
2019-04-14T08:43:09.801Z,9.10
2019-04-14T08:45:42.865Z,9.30
2019-04-14T08:48:12.936Z,9.30
2019-04-14T08:50:59.443Z,8.90
2019-04-14T08:53:32.438Z,9.00
2019-04-14T08:56:11.558Z,9.00
2019-04-14T08:58:44.595Z,9.10
2019-04-14T09:01:20.399Z,9.40
2019-04-14T09:04:06.744Z,9.10
2019-04-14T09:06:46.137Z,8.70
2019-04-14T09:09:16.389Z,8.30
2019-04-14T09:12:14.831Z,8.30
2019-04-14T09:14:33.218Z,8.40
2019-04-14T09:17:01.666Z,8.50
2019-04-14T09:19:30.063Z,8.60
2019-04-14T09:21:58.953Z,8.70
2019-04-14T09:24:27.383Z,8.80
2019-04-14T09:26:55.857Z,8.80
2019-04-14T09:29:24.265Z,8.70
2019-04-14T09:31:52.690Z,9.10
2019-04-14T09:34:21.106Z,9.10
2019-04-14T09:36:49.527Z,9.30
2019-04-14T09:39:17.939Z,9.40
2019-04-14T09:41:46.346Z,9.60
2019-04-14T09:44:15.121Z,9.60
2019-04-14T09:46:43.536Z,9.70
2019-04-14T09:49:12.004Z,10.10
2019-04-14T09:51:40.395Z,9.80
2019-04-14T09:54:09.126Z,9.70
2019-04-14T09:56:37.567Z,9.70
2019-04-14T09:59:05.989Z,9.70
2019-04-14T10:01:34.410Z,9.70
2019-04-14T10:04:02.842Z,9.90
2019-04-14T10:06:31.275Z,9.90
2019-04-14T10:08:59.781Z,10.20
2019-04-14T10:11:28.629Z,10.20
2019-04-14T10:13:57.066Z,10.30
2019-04-14T10:16:25.492Z,9.90
2019-04-14T10:18:53.909Z,9.70
2019-04-14T10:21:22.335Z,9.50
2019-04-14T10:23:50.771Z,9.60
2019-04-14T10:26:19.229Z,9.40
2019-04-14T10:28:50.590Z,9.00
2019-04-14T10:31:18.526Z,9.10
2019-04-14T10:33:47.044Z,9.10
2019-04-14T10:36:15.474Z,9.00
2019-04-14T10:38:43.906Z,9.00
2019-04-14T10:41:12.301Z,9.20
2019-04-14T10:43:40.744Z,9.10
2019-04-14T10:46:09.192Z,9.20
2019-04-14T10:48:37.794Z,9.20
2019-04-14T10:51:06.206Z,9.00
2019-04-14T10:53:34.651Z,9.10
2019-04-14T10:56:03.245Z,9.00
2019-04-14T10:58:31.653Z,8.80
2019-04-14T11:01:00.089Z,8.90
2019-04-14T11:03:28.576Z,9.10
2019-04-14T11:06:01.338Z,9.10
2019-04-14T11:08:30.050Z,8.90
2019-04-14T11:10:58.482Z,8.90
2019-04-14T11:13:26.926Z,9.00
2019-04-14T11:15:55.707Z,9.30
2019-04-14T11:18:24.116Z,9.40
2019-04-14T11:20:52.577Z,9.90
2019-04-14T11:23:20.959Z,10.30
2019-04-14T11:25:49.395Z,10.00
2019-04-14T11:28:17.944Z,10.10
2019-04-14T11:30:46.483Z,9.90
2019-04-14T11:33:16.526Z,9.90
2019-04-14T11:35:46.642Z,10.00
2019-04-14T11:38:22.714Z,10.00
2019-04-14T11:40:52.843Z,9.70
2019-04-14T11:43:21.269Z,9.80
2019-04-14T11:45:49.763Z,9.90
2019-04-14T11:48:18.573Z,9.80
2019-04-14T11:50:47.036Z,10.10
2019-04-14T11:53:15.433Z,10.20
2019-04-14T11:55:43.880Z,10.30
2019-04-14T11:58:12.287Z,10.40
2019-04-14T12:00:54.266Z,10.50
2019-04-14T12:03:24.321Z,10.40
2019-04-14T12:06:10.886Z,10.40
2019-04-14T12:08:49.971Z,10.20
2019-04-14T12:11:18.429Z,10.20
2019-04-14T12:13:47.421Z,9.90
2019-04-14T12:16:16.097Z,10.10
2019-04-14T12:18:44.525Z,10.40
2019-04-14T12:21:12.957Z,10.30
2019-04-14T12:23:41.660Z,10.10
2019-04-14T12:26:10.285Z,10.30
2019-04-14T12:28:38.820Z,10.00
2019-04-14T12:31:08.632Z,10.10
2019-04-14T12:33:37.259Z,10.10
2019-04-14T12:36:08.854Z,10.20
2019-04-14T12:38:37.285Z,10.10
2019-04-14T12:41:08.218Z,10.10
2019-04-14T12:43:38.445Z,9.90
2019-04-14T12:46:25.177Z,9.80
2019-04-14T12:48:58.191Z,9.80
2019-04-14T12:51:37.065Z,9.70
2019-04-14T12:54:05.754Z,9.60
2019-04-14T12:56:34.181Z,9.50
2019-04-14T12:59:04.290Z,9.50
2019-04-14T13:01:52.325Z,9.60
2019-04-14T13:04:20.989Z,9.70
2019-04-14T13:06:49.448Z,9.80
2019-04-14T13:09:17.891Z,10.10
2019-04-14T13:11:46.360Z,10.20
2019-04-14T13:14:14.797Z,10.30
2019-04-14T13:16:43.221Z,10.40
2019-04-14T13:19:11.659Z,10.40
2019-04-14T13:21:40.555Z,10.50
2019-04-14T13:24:09.663Z,10.70
2019-04-14T13:26:38.104Z,10.90
2019-04-14T13:29:06.810Z,11.00
2019-04-14T13:31:35.237Z,10.70
2019-04-14T13:34:03.671Z,10.30
2019-04-14T13:36:32.145Z,10.40
2019-04-14T13:39:00.562Z,10.40
2019-04-14T13:41:29.337Z,10.40
2019-04-14T13:43:57.754Z,10.60
2019-04-14T13:46:26.194Z,10.30
2019-04-14T13:48:54.620Z,9.90
2019-04-14T13:51:23.362Z,9.90
2019-04-14T13:53:51.797Z,9.90
2019-04-14T13:56:20.217Z,10.20
2019-04-14T13:58:48.648Z,10.40
2019-04-14T14:01:17.106Z,10.20
2019-04-14T14:03:45.540Z,10.40
2019-04-14T14:06:13.971Z,10.50
2019-04-14T14:08:42.400Z,10.50
2019-04-14T14:11:27.461Z,10.40
2019-04-14T14:14:00.062Z,10.40
2019-04-14T14:16:39.123Z,10.40
2019-04-14T14:19:09.209Z,10.50
2019-04-14T14:21:42.251Z,10.70
2019-04-14T14:24:18.082Z,10.50
2019-04-14T14:26:53.900Z,10.30
2019-04-14T14:29:22.311Z,10.50
2019-04-14T14:31:51.326Z,10.30
2019-04-14T14:34:19.793Z,10.40
2019-04-14T14:36:48.219Z,10.50
2019-04-14T14:39:19.153Z,10.50
2019-04-14T14:41:47.569Z,10.30
2019-04-14T14:44:16.281Z,10.40
2019-04-14T14:46:46.336Z,10.40
2019-04-14T14:49:28.718Z,10.60
2019-04-14T14:52:01.794Z,10.90
2019-04-14T14:54:30.213Z,10.60
2019-04-14T14:56:58.714Z,10.50
2019-04-14T14:59:27.146Z,10.70
2019-04-14T15:01:55.803Z,10.70
2019-04-14T15:04:24.241Z,10.70
2019-04-14T15:06:53.000Z,10.50
2019-04-14T15:09:21.431Z,10.60
2019-04-14T15:11:49.843Z,10.60
2019-04-14T15:14:18.277Z,10.80
2019-04-14T15:16:46.758Z,11.00
2019-04-14T15:19:15.221Z,10.70
2019-04-14T15:21:43.734Z,10.60
2019-04-14T15:24:12.148Z,10.60
2019-04-14T15:26:40.583Z,10.50
2019-04-14T15:29:09.003Z,10.40
2019-04-14T15:31:37.448Z,10.40
2019-04-14T15:34:05.874Z,10.30
2019-04-14T15:36:34.387Z,10.30
2019-04-14T15:39:03.428Z,10.40
2019-04-14T15:41:31.867Z,10.60
2019-04-14T15:44:00.356Z,10.40
2019-04-14T15:46:28.771Z,10.30
2019-04-14T15:48:57.220Z,10.20
2019-04-14T15:51:25.637Z,10.20
2019-04-14T15:53:54.152Z,10.10
2019-04-14T15:56:24.252Z,10.20
2019-04-14T15:58:59.858Z,10.10
2019-04-14T16:01:30.305Z,10.00
2019-04-14T16:04:02.968Z,10.10
2019-04-14T16:06:49.418Z,10.20
2019-04-14T16:09:41.781Z,10.30
2019-04-14T16:12:11.851Z,10.30
2019-04-14T16:14:41.958Z,10.20
2019-04-14T16:17:28.644Z,10.20
2019-04-14T16:20:10.526Z,10.20
2019-04-14T16:22:39.187Z,10.20
2019-04-14T16:25:08.847Z,10.20
2019-04-14T16:27:38.984Z,10.30
2019-04-14T16:30:09.387Z,10.40
2019-04-14T16:32:42.521Z,10.50
2019-04-14T16:35:14.998Z,10.30
2019-04-14T16:37:43.422Z,10.00
2019-04-14T16:40:11.996Z,10.00
2019-04-14T16:42:40.808Z,10.10
2019-04-14T16:45:09.402Z,10.10
2019-04-14T16:47:37.848Z,10.30
2019-04-14T16:50:09.336Z,10.20
2019-04-14T16:52:39.409Z,10.10
2019-04-14T16:55:21.495Z,10.10
2019-04-14T16:58:00.554Z,10.20
2019-04-14T17:00:30.732Z,10.10
2019-04-14T17:02:59.165Z,10.10
2019-04-14T17:05:27.665Z,10.00
2019-04-14T17:07:56.326Z,9.90
2019-04-14T17:10:24.824Z,10.00
2019-04-14T17:12:53.309Z,10.00
2019-04-14T17:15:23.472Z,10.00
2019-04-14T17:18:10.827Z,10.00
2019-04-14T17:20:44.319Z,10.00
2019-04-14T17:23:17.217Z,10.10
2019-04-14T17:26:09.148Z,10.20
2019-04-14T17:28:39.218Z,10.20
2019-04-14T17:31:14.960Z,10.20
2019-04-14T17:33:45.034Z,10.00
2019-04-14T17:36:26.775Z,9.90
2019-04-14T17:39:13.015Z,9.90
2019-04-14T17:41:43.075Z,9.90
2019-04-14T17:44:19.054Z,10.00
2019-04-14T17:46:58.257Z,10.10
2019-04-14T17:49:28.339Z,10.10
2019-04-14T17:52:01.351Z,9.90
2019-04-14T17:54:34.497Z,9.90
2019-04-14T17:57:13.730Z,9.90
2019-04-14T17:59:44.495Z,9.90
2019-04-14T18:02:20.193Z,10.00
2019-04-14T18:05:02.338Z,10.00
2019-04-14T18:07:35.144Z,9.90
2019-04-14T18:10:19.264Z,10.00
2019-04-14T18:12:57.993Z,10.00
2019-04-14T18:15:36.742Z,9.90
2019-04-14T18:18:09.303Z,9.80
2019-04-14T18:20:45.169Z,9.80
2019-04-14T18:23:13.572Z,9.90
2019-04-14T18:25:41.992Z,9.70
2019-04-14T18:28:21.120Z,9.70
2019-04-14T18:30:57.135Z,9.60
2019-04-14T18:33:27.242Z,9.50
2019-04-14T18:35:59.825Z,9.40
2019-04-14T18:38:32.902Z,9.50
2019-04-14T18:41:08.980Z,9.50
2019-04-14T18:43:48.068Z,9.60
2019-04-14T18:46:21.158Z,9.60
2019-04-14T18:48:51.310Z,9.60
2019-04-14T18:51:21.382Z,9.50
2019-04-14T18:54:06.504Z,9.50
2019-04-14T18:59:34.382Z,9.40
2019-04-14T19:02:02.796Z,9.50
2019-04-14T19:04:31.230Z,9.50
2019-04-14T19:06:59.661Z,9.50
2019-04-14T19:09:28.174Z,9.40
2019-04-14T19:12:14.543Z,9.30
2019-04-14T19:14:42.971Z,9.30
2019-04-14T19:17:27.819Z,9.30
2019-04-14T19:20:02.003Z,9.30
2019-04-14T19:22:28.433Z,9.40
2019-04-14T19:25:07.320Z,9.30
2019-04-14T19:27:26.985Z,9.30
2019-04-14T19:29:55.456Z,9.20
2019-04-14T19:32:24.245Z,9.30
2019-04-14T19:34:52.664Z,9.30
2019-04-14T19:37:21.091Z,9.20
2019-04-14T19:39:50.885Z,9.10
2019-04-14T19:42:19.308Z,9.10
2019-04-14T19:44:47.735Z,9.20
2019-04-14T19:47:16.479Z,9.10
2019-04-14T19:49:44.917Z,9.10
2019-04-14T19:52:13.411Z,9.00
2019-04-14T19:54:41.818Z,8.80
2019-04-14T19:57:10.308Z,8.80
2019-04-14T19:59:38.720Z,8.90
2019-04-14T20:02:07.165Z,8.80
2019-04-14T20:04:35.589Z,8.70
2019-04-14T20:07:04.094Z,8.60
2019-04-14T20:09:32.557Z,8.60
2019-04-14T20:12:01.024Z,8.70
2019-04-14T20:14:29.757Z,8.70
2019-04-14T20:17:06.211Z,8.80
2019-04-14T20:19:39.470Z,8.70
2019-04-14T20:22:09.563Z,8.60
2019-04-14T20:24:39.705Z,8.50
2019-04-14T20:27:27.101Z,8.40
2019-04-14T20:29:57.374Z,8.30
2019-04-14T20:32:27.444Z,8.20
2019-04-14T20:34:55.856Z,8.00
2019-04-14T20:37:24.277Z,8.00
2019-04-14T20:39:52.692Z,8.00
2019-04-14T20:42:21.244Z,8.10
2019-04-14T20:44:49.756Z,8.00
2019-04-14T20:47:18.197Z,8.00
2019-04-14T20:49:46.632Z,7.90
2019-04-14T20:52:15.125Z,7.80
2019-04-14T20:54:43.566Z,7.80
2019-04-14T20:57:13.230Z,7.80
2019-04-14T20:59:41.710Z,7.80
2019-04-14T21:02:11.781Z,7.80
2019-04-14T21:04:59.883Z,7.70
2019-04-14T21:07:46.287Z,7.80
2019-04-14T21:10:33.004Z,7.90
2019-04-14T21:13:19.322Z,7.80
2019-04-14T21:16:12.614Z,7.80
2019-04-14T21:18:37.971Z,7.80
2019-04-14T21:21:20.090Z,7.80
2019-04-14T21:23:55.767Z,7.70
2019-04-14T21:26:31.696Z,7.70
2019-04-14T21:29:10.890Z,7.60
2019-04-14T21:31:46.710Z,7.50
2019-04-14T21:34:25.772Z,7.50
2019-04-14T21:36:55.841Z,7.30
2019-04-14T21:39:25.904Z,7.20
2019-04-14T21:41:54.336Z,7.10
2019-04-14T21:44:22.729Z,7.00
2019-04-14T21:46:51.203Z,6.90
2019-04-14T21:49:19.916Z,6.90
2019-04-14T21:51:52.687Z,6.80
2019-04-14T21:54:21.710Z,6.80
2019-04-14T21:56:51.751Z,6.80
2019-04-14T21:59:21.818Z,6.70
2019-04-14T22:01:51.867Z,6.80
2019-04-14T22:04:21.963Z,6.70
2019-04-14T22:06:54.722Z,6.80
2019-04-14T22:09:30.510Z,6.80
2019-04-14T22:12:00.161Z,6.90
2019-04-14T22:14:28.577Z,7.00
2019-04-14T22:16:56.979Z,7.00
2019-04-14T22:19:25.573Z,7.00
2019-04-14T22:21:53.989Z,7.10
2019-04-14T22:24:22.412Z,7.10
2019-04-14T22:26:50.823Z,7.20
2019-04-14T22:29:19.261Z,7.20
2019-04-14T22:31:47.683Z,7.10
2019-04-14T22:34:16.094Z,7.10
2019-04-14T22:36:44.506Z,7.00
2019-04-14T22:39:17.086Z,6.90
2019-04-14T22:41:45.492Z,6.90
2019-04-14T22:44:13.910Z,7.00
2019-04-14T22:46:42.313Z,6.90
2019-04-14T22:49:10.734Z,6.80
2019-04-14T22:51:39.145Z,6.80
2019-04-14T22:54:07.561Z,6.70
2019-04-14T22:56:39.386Z,6.70
2019-04-14T22:59:06.095Z,6.80
2019-04-14T23:01:36.135Z,6.80
2019-04-14T23:04:15.386Z,6.80
2019-04-14T23:07:03.727Z,6.80
2019-04-14T23:09:33.858Z,6.90
2019-04-14T23:12:22.046Z,6.80
2019-04-14T23:15:00.919Z,6.90
2019-04-14T23:17:36.656Z,6.80
2019-04-14T23:20:12.953Z,6.80
2019-04-14T23:22:48.752Z,6.80
2019-04-14T23:25:17.187Z,6.80
2019-04-14T23:27:45.661Z,6.70
2019-04-14T23:30:14.164Z,6.80
2019-04-14T23:32:42.560Z,6.90
2019-04-14T23:35:11.049Z,6.80
2019-04-14T23:37:39.468Z,6.70
2019-04-14T23:40:08.830Z,6.70
2019-04-14T23:42:56.587Z,6.70
2019-04-14T23:45:24.996Z,6.70
2019-04-14T23:47:53.408Z,6.70
2019-04-14T23:50:21.854Z,6.70
2019-04-14T23:52:50.268Z,6.70
2019-04-14T23:55:18.767Z,6.70
2019-04-14T23:57:47.185Z,6.60
